sensor_id;sensor_type;location;lat;lon;timestamp;temperature;humidity
23681;DHT22;62915;50.832;4.462;2023-03-05T00:01:29;6.80;99.90
23681;DHT22;62915;50.832;4.462;2023-03-05T00:03:55;6.90;99.90
23681;DHT22;62915;50.832;4.462;2023-03-05T00:06:23;6.90;99.90
23681;DHT22;62915;50.832;4.462;2023-03-05T00:08:49;7.00;99.90
23681;DHT22;62915;50.832;4.462;2023-03-05T00:11:16;7.10;99.90
23681;DHT22;62915;50.832;4.462;2023-03-05T00:13:42;7.10;99.90
23681;DHT22;62915;50.832;4.462;2023-03-05T00:16:11;7.10;99.90
23681;DHT22;62915;50.832;4.462;2023-03-05T00:18:37;7.20;99.90
23681;DHT22;62915;50.832;4.462;2023-03-05T00:21:04;7.30;99.90
23681;DHT22;62915;50.832;4.462;2023-03-05T00:23:30;7.50;99.90
23681;DHT22;62915;50.832;4.462;2023-03-05T00:26:00;7.50;99.90
23681;DHT22;62915;50.832;4.462;2023-03-05T00:28:27;7.30;99.90
23681;DHT22;62915;50.832;4.462;2023-03-05T00:30:53;7.30;99.90
23681;DHT22;62915;50.832;4.462;2023-03-05T00:33:19;7.30;99.90
23681;DHT22;62915;50.832;4.462;2023-03-05T00:35:45;7.40;99.90
23681;DHT22;62915;50.832;4.462;2023-03-05T00:38:12;7.30;99.90
23681;DHT22;62915;50.832;4.462;2023-03-05T00:40:39;7.10;99.90
23681;DHT22;62915;50.832;4.462;2023-03-05T00:43:05;7.20;99.90
23681;DHT22;62915;50.832;4.462;2023-03-05T00:45:32;7.10;99.90
23681;DHT22;62915;50.832;4.462;2023-03-05T00:47:58;7.30;99.90
23681;DHT22;62915;50.832;4.462;2023-03-05T00:50:26;7.30;99.90
23681;DHT22;62915;50.832;4.462;2023-03-05T00:52:52;7.50;99.90
23681;DHT22;62915;50.832;4.462;2023-03-05T00:55:18;7.40;99.90
23681;DHT22;62915;50.832;4.462;2023-03-05T00:57:44;7.20;99.90
23681;DHT22;62915;50.832;4.462;2023-03-05T01:00:11;7.30;99.90
23681;DHT22;62915;50.832;4.462;2023-03-05T01:02:37;7.20;99.90
23681;DHT22;62915;50.832;4.462;2023-03-05T01:05:03;7.20;99.90
23681;DHT22;62915;50.832;4.462;2023-03-05T01:07:29;7.30;99.90
23681;DHT22;62915;50.832;4.462;2023-03-05T01:09:55;7.40;99.90
23681;DHT22;62915;50.832;4.462;2023-03-05T01:12:21;7.50;99.90
23681;DHT22;62915;50.832;4.462;2023-03-05T01:14:46;7.40;99.90
23681;DHT22;62915;50.832;4.462;2023-03-05T01:17:12;7.40;99.90
23681;DHT22;62915;50.832;4.462;2023-03-05T01:19:38;7.40;99.90
23681;DHT22;62915;50.832;4.462;2023-03-05T01:22:03;7.40;99.90
23681;DHT22;62915;50.832;4.462;2023-03-05T01:24:30;7.30;99.90
23681;DHT22;62915;50.832;4.462;2023-03-05T01:26:56;7.30;99.90
23681;DHT22;62915;50.832;4.462;2023-03-05T01:29:22;7.10;99.90
23681;DHT22;62915;50.832;4.462;2023-03-05T01:31:48;7.00;99.90
23681;DHT22;62915;50.832;4.462;2023-03-05T01:34:14;6.90;99.90
23681;DHT22;62915;50.832;4.462;2023-03-05T01:36:43;7.10;99.90
23681;DHT22;62915;50.832;4.462;2023-03-05T01:39:09;7.20;99.90
23681;DHT22;62915;50.832;4.462;2023-03-05T01:41:34;7.10;99.90
23681;DHT22;62915;50.832;4.462;2023-03-05T01:44:00;7.00;99.90
23681;DHT22;62915;50.832;4.462;2023-03-05T01:46:33;6.90;99.90
23681;DHT22;62915;50.832;4.462;2023-03-05T01:49:20;7.00;99.90
23681;DHT22;62915;50.832;4.462;2023-03-05T01:52:10;7.20;99.90
23681;DHT22;62915;50.832;4.462;2023-03-05T01:54:44;7.20;99.90
23681;DHT22;62915;50.832;4.462;2023-03-05T01:57:17;7.10;99.90
23681;DHT22;62915;50.832;4.462;2023-03-05T01:59:45;7.10;99.90
23681;DHT22;62915;50.832;4.462;2023-03-05T02:02:13;7.10;99.90
23681;DHT22;62915;50.832;4.462;2023-03-05T02:04:52;7.00;99.90
23681;DHT22;62915;50.832;4.462;2023-03-05T02:07:20;7.00;99.90
23681;DHT22;62915;50.832;4.462;2023-03-05T02:09:46;7.00;99.90
23681;DHT22;62915;50.832;4.462;2023-03-05T02:12:12;6.80;99.90
23681;DHT22;62915;50.832;4.462;2023-03-05T02:14:41;7.00;99.90
23681;DHT22;62915;50.832;4.462;2023-03-05T02:17:09;7.10;99.90
23681;DHT22;62915;50.832;4.462;2023-03-05T02:19:53;7.00;99.90
23681;DHT22;62915;50.832;4.462;2023-03-05T02:22:20;7.00;99.90
23681;DHT22;62915;50.832;4.462;2023-03-05T02:24:47;7.10;99.90
23681;DHT22;62915;50.832;4.462;2023-03-05T02:27:13;7.10;99.90
23681;DHT22;62915;50.832;4.462;2023-03-05T02:29:45;7.10;99.90
23681;DHT22;62915;50.832;4.462;2023-03-05T02:32:12;6.90;99.90
23681;DHT22;62915;50.832;4.462;2023-03-05T02:34:38;7.00;99.90
23681;DHT22;62915;50.832;4.462;2023-03-05T02:37:05;7.10;99.90
23681;DHT22;62915;50.832;4.462;2023-03-05T02:39:33;7.10;99.90
23681;DHT22;62915;50.832;4.462;2023-03-05T02:41:59;7.20;99.90
23681;DHT22;62915;50.832;4.462;2023-03-05T02:44:25;7.20;99.90
23681;DHT22;62915;50.832;4.462;2023-03-05T02:46:51;7.30;99.90
23681;DHT22;62915;50.832;4.462;2023-03-05T02:49:17;7.20;99.90
23681;DHT22;62915;50.832;4.462;2023-03-05T02:51:43;7.10;99.90
23681;DHT22;62915;50.832;4.462;2023-03-05T02:54:08;7.00;99.90
23681;DHT22;62915;50.832;4.462;2023-03-05T02:56:34;7.10;99.90
23681;DHT22;62915;50.832;4.462;2023-03-05T02:59:00;7.20;99.90
23681;DHT22;62915;50.832;4.462;2023-03-05T03:01:25;7.30;99.90
23681;DHT22;62915;50.832;4.462;2023-03-05T03:03:53;7.10;99.90
23681;DHT22;62915;50.832;4.462;2023-03-05T03:06:19;7.10;99.90
23681;DHT22;62915;50.832;4.462;2023-03-05T03:08:44;7.20;99.90
23681;DHT22;62915;50.832;4.462;2023-03-05T03:11:11;7.00;99.90
23681;DHT22;62915;50.832;4.462;2023-03-05T03:13:38;7.10;99.90
23681;DHT22;62915;50.832;4.462;2023-03-05T03:16:06;7.20;99.90
23681;DHT22;62915;50.832;4.462;2023-03-05T03:18:32;7.30;99.90
23681;DHT22;62915;50.832;4.462;2023-03-05T03:20:58;7.40;99.90
23681;DHT22;62915;50.832;4.462;2023-03-05T03:23:24;7.30;99.90
23681;DHT22;62915;50.832;4.462;2023-03-05T03:25:51;7.20;99.90
23681;DHT22;62915;50.832;4.462;2023-03-05T03:28:17;6.90;99.90
23681;DHT22;62915;50.832;4.462;2023-03-05T03:30:42;6.90;99.90
23681;DHT22;62915;50.832;4.462;2023-03-05T03:33:08;6.90;99.90
23681;DHT22;62915;50.832;4.462;2023-03-05T03:35:34;6.70;99.90
23681;DHT22;62915;50.832;4.462;2023-03-05T03:37:59;6.80;99.90
23681;DHT22;62915;50.832;4.462;2023-03-05T03:40:25;6.80;99.90
23681;DHT22;62915;50.832;4.462;2023-03-05T03:42:51;6.90;99.90
23681;DHT22;62915;50.832;4.462;2023-03-05T03:45:17;7.00;99.90
23681;DHT22;62915;50.832;4.462;2023-03-05T03:47:43;7.00;99.90
23681;DHT22;62915;50.832;4.462;2023-03-05T03:50:09;7.00;99.90
23681;DHT22;62915;50.832;4.462;2023-03-05T03:52:35;7.10;99.90
23681;DHT22;62915;50.832;4.462;2023-03-05T03:55:00;7.20;99.90
23681;DHT22;62915;50.832;4.462;2023-03-05T03:57:30;7.20;99.90
23681;DHT22;62915;50.832;4.462;2023-03-05T03:59:58;7.30;99.90
23681;DHT22;62915;50.832;4.462;2023-03-05T04:02:24;7.30;99.90
23681;DHT22;62915;50.832;4.462;2023-03-05T04:04:50;7.20;99.90
23681;DHT22;62915;50.832;4.462;2023-03-05T04:07:16;7.30;99.90
23681;DHT22;62915;50.832;4.462;2023-03-05T04:09:41;7.30;99.90
23681;DHT22;62915;50.832;4.462;2023-03-05T04:15:29;7.40;99.90
23681;DHT22;62915;50.832;4.462;2023-03-05T04:17:55;7.40;99.90
23681;DHT22;62915;50.832;4.462;2023-03-05T04:20:20;7.40;99.90
23681;DHT22;62915;50.832;4.462;2023-03-05T04:22:46;7.40;99.90
23681;DHT22;62915;50.832;4.462;2023-03-05T04:25:12;7.40;99.90
23681;DHT22;62915;50.832;4.462;2023-03-05T04:27:37;7.40;99.90
23681;DHT22;62915;50.832;4.462;2023-03-05T04:30:05;7.40;99.90
23681;DHT22;62915;50.832;4.462;2023-03-05T04:32:31;7.40;99.90
23681;DHT22;62915;50.832;4.462;2023-03-05T04:34:58;7.30;99.90
23681;DHT22;62915;50.832;4.462;2023-03-05T04:37:24;7.30;99.90
23681;DHT22;62915;50.832;4.462;2023-03-05T04:39:51;7.30;99.90
23681;DHT22;62915;50.832;4.462;2023-03-05T04:42:17;7.30;99.90
23681;DHT22;62915;50.832;4.462;2023-03-05T04:44:45;7.30;99.90
23681;DHT22;62915;50.832;4.462;2023-03-05T04:47:11;7.40;99.90
23681;DHT22;62915;50.832;4.462;2023-03-05T04:49:36;7.40;99.90
23681;DHT22;62915;50.832;4.462;2023-03-05T04:52:02;7.30;99.90
23681;DHT22;62915;50.832;4.462;2023-03-05T04:54:28;7.30;99.90
23681;DHT22;62915;50.832;4.462;2023-03-05T04:56:53;7.40;99.90
23681;DHT22;62915;50.832;4.462;2023-03-05T04:59:19;7.40;99.90
23681;DHT22;62915;50.832;4.462;2023-03-05T05:01:45;7.30;99.90
23681;DHT22;62915;50.832;4.462;2023-03-05T05:04:10;7.30;99.90
23681;DHT22;62915;50.832;4.462;2023-03-05T05:06:36;7.30;99.90
23681;DHT22;62915;50.832;4.462;2023-03-05T05:09:03;7.20;99.90
23681;DHT22;62915;50.832;4.462;2023-03-05T05:11:29;7.30;99.90
23681;DHT22;62915;50.832;4.462;2023-03-05T05:13:54;7.30;99.90
23681;DHT22;62915;50.832;4.462;2023-03-05T05:16:20;7.30;99.90
23681;DHT22;62915;50.832;4.462;2023-03-05T05:18:46;7.30;99.90
23681;DHT22;62915;50.832;4.462;2023-03-05T05:21:13;7.30;99.90
23681;DHT22;62915;50.832;4.462;2023-03-05T05:23:39;7.20;99.90
23681;DHT22;62915;50.832;4.462;2023-03-05T05:26:06;7.20;99.90
23681;DHT22;62915;50.832;4.462;2023-03-05T05:28:34;7.10;99.90
23681;DHT22;62915;50.832;4.462;2023-03-05T05:31:00;7.20;99.90
23681;DHT22;62915;50.832;4.462;2023-03-05T05:33:26;7.20;99.90
23681;DHT22;62915;50.832;4.462;2023-03-05T05:35:51;7.20;99.90
23681;DHT22;62915;50.832;4.462;2023-03-05T05:38:17;7.30;99.90
23681;DHT22;62915;50.832;4.462;2023-03-05T05:40:43;7.20;99.90
23681;DHT22;62915;50.832;4.462;2023-03-05T05:43:09;7.30;99.90
23681;DHT22;62915;50.832;4.462;2023-03-05T05:45:37;7.30;99.90
23681;DHT22;62915;50.832;4.462;2023-03-05T05:48:03;7.30;99.90
23681;DHT22;62915;50.832;4.462;2023-03-05T05:50:28;7.30;99.90
23681;DHT22;62915;50.832;4.462;2023-03-05T05:52:54;7.10;99.90
23681;DHT22;62915;50.832;4.462;2023-03-05T05:55:20;7.10;99.90
23681;DHT22;62915;50.832;4.462;2023-03-05T05:57:46;7.00;99.90
23681;DHT22;62915;50.832;4.462;2023-03-05T06:00:13;6.90;99.90
23681;DHT22;62915;50.832;4.462;2023-03-05T06:02:40;6.90;99.90
23681;DHT22;62915;50.832;4.462;2023-03-05T06:05:10;6.90;99.90
23681;DHT22;62915;50.832;4.462;2023-03-05T06:07:36;6.70;99.90
23681;DHT22;62915;50.832;4.462;2023-03-05T06:10:03;6.70;99.90
23681;DHT22;62915;50.832;4.462;2023-03-05T06:12:28;6.90;99.90
23681;DHT22;62915;50.832;4.462;2023-03-05T06:14:54;6.90;99.90
23681;DHT22;62915;50.832;4.462;2023-03-05T06:17:20;6.90;99.90
23681;DHT22;62915;50.832;4.462;2023-03-05T06:19:45;7.00;99.90
23681;DHT22;62915;50.832;4.462;2023-03-05T06:22:11;7.00;99.90
23681;DHT22;62915;50.832;4.462;2023-03-05T06:24:37;7.00;99.90
23681;DHT22;62915;50.832;4.462;2023-03-05T06:27:04;7.00;99.90
23681;DHT22;62915;50.832;4.462;2023-03-05T06:29:30;7.00;99.90
23681;DHT22;62915;50.832;4.462;2023-03-05T06:31:56;7.00;99.90
23681;DHT22;62915;50.832;4.462;2023-03-05T06:34:22;7.00;99.90
23681;DHT22;62915;50.832;4.462;2023-03-05T06:36:48;6.90;99.90
23681;DHT22;62915;50.832;4.462;2023-03-05T06:39:13;6.90;99.90
23681;DHT22;62915;50.832;4.462;2023-03-05T06:41:40;6.80;99.90
23681;DHT22;62915;50.832;4.462;2023-03-05T06:44:06;6.80;99.90
23681;DHT22;62915;50.832;4.462;2023-03-05T06:46:34;6.70;99.90
23681;DHT22;62915;50.832;4.462;2023-03-05T06:49:02;6.80;99.90
23681;DHT22;62915;50.832;4.462;2023-03-05T06:51:31;6.90;99.90
23681;DHT22;62915;50.832;4.462;2023-03-05T06:54:05;6.80;99.90
23681;DHT22;62915;50.832;4.462;2023-03-05T06:56:31;6.70;99.90
23681;DHT22;62915;50.832;4.462;2023-03-05T06:58:59;6.70;99.90
23681;DHT22;62915;50.832;4.462;2023-03-05T07:01:25;6.70;99.90
23681;DHT22;62915;50.832;4.462;2023-03-05T07:03:52;6.60;99.90
23681;DHT22;62915;50.832;4.462;2023-03-05T07:06:18;6.50;99.90
23681;DHT22;62915;50.832;4.462;2023-03-05T07:08:44;6.50;99.90
23681;DHT22;62915;50.832;4.462;2023-03-05T07:11:12;6.30;99.90
23681;DHT22;62915;50.832;4.462;2023-03-05T07:13:40;6.30;99.90
23681;DHT22;62915;50.832;4.462;2023-03-05T07:16:12;6.40;99.90
23681;DHT22;62915;50.832;4.462;2023-03-05T07:18:38;6.40;99.90
23681;DHT22;62915;50.832;4.462;2023-03-05T07:21:06;6.50;99.90
23681;DHT22;62915;50.832;4.462;2023-03-05T07:23:33;6.50;99.90
23681;DHT22;62915;50.832;4.462;2023-03-05T07:26:03;6.50;99.90
23681;DHT22;62915;50.832;4.462;2023-03-05T07:28:30;6.40;99.90
23681;DHT22;62915;50.832;4.462;2023-03-05T07:31:01;6.50;99.90
23681;DHT22;62915;50.832;4.462;2023-03-05T07:33:27;6.50;99.90
23681;DHT22;62915;50.832;4.462;2023-03-05T07:35:54;6.50;99.90
23681;DHT22;62915;50.832;4.462;2023-03-05T07:38:19;6.60;99.90
23681;DHT22;62915;50.832;4.462;2023-03-05T07:40:45;6.70;99.90
23681;DHT22;62915;50.832;4.462;2023-03-05T07:43:11;6.80;99.90
23681;DHT22;62915;50.832;4.462;2023-03-05T07:45:42;6.90;99.90
23681;DHT22;62915;50.832;4.462;2023-03-05T07:48:11;6.80;99.90
23681;DHT22;62915;50.832;4.462;2023-03-05T07:50:38;6.80;99.90
23681;DHT22;62915;50.832;4.462;2023-03-05T07:53:04;6.80;99.90
23681;DHT22;62915;50.832;4.462;2023-03-05T07:55:29;6.80;99.90
23681;DHT22;62915;50.832;4.462;2023-03-05T07:57:55;6.80;99.90
23681;DHT22;62915;50.832;4.462;2023-03-05T08:00:21;6.70;99.90
23681;DHT22;62915;50.832;4.462;2023-03-05T08:02:49;6.70;99.90
23681;DHT22;62915;50.832;4.462;2023-03-05T08:05:15;7.00;99.90
23681;DHT22;62915;50.832;4.462;2023-03-05T08:07:41;6.90;99.90
23681;DHT22;62915;50.832;4.462;2023-03-05T08:10:08;6.90;99.90
23681;DHT22;62915;50.832;4.462;2023-03-05T08:12:34;6.90;99.90
23681;DHT22;62915;50.832;4.462;2023-03-05T08:15:00;7.00;99.90
23681;DHT22;62915;50.832;4.462;2023-03-05T08:17:26;6.90;99.90
23681;DHT22;62915;50.832;4.462;2023-03-05T08:19:51;7.00;99.90
23681;DHT22;62915;50.832;4.462;2023-03-05T08:22:19;7.00;99.90
23681;DHT22;62915;50.832;4.462;2023-03-05T08:24:45;6.90;99.90
23681;DHT22;62915;50.832;4.462;2023-03-05T08:27:11;7.00;99.90
23681;DHT22;62915;50.832;4.462;2023-03-05T08:29:36;7.00;99.90
23681;DHT22;62915;50.832;4.462;2023-03-05T08:32:02;6.90;99.90
23681;DHT22;62915;50.832;4.462;2023-03-05T08:34:28;6.90;99.90
23681;DHT22;62915;50.832;4.462;2023-03-05T08:36:54;7.10;99.90
23681;DHT22;62915;50.832;4.462;2023-03-05T08:39:20;6.90;99.90
23681;DHT22;62915;50.832;4.462;2023-03-05T08:41:45;6.80;99.90
23681;DHT22;62915;50.832;4.462;2023-03-05T08:44:11;6.80;99.90
23681;DHT22;62915;50.832;4.462;2023-03-05T08:46:40;6.90;99.90
23681;DHT22;62915;50.832;4.462;2023-03-05T08:49:06;7.10;99.90
23681;DHT22;62915;50.832;4.462;2023-03-05T08:51:32;7.20;99.90
23681;DHT22;62915;50.832;4.462;2023-03-05T08:53:59;7.10;99.90
23681;DHT22;62915;50.832;4.462;2023-03-05T08:56:26;7.00;99.90
23681;DHT22;62915;50.832;4.462;2023-03-05T08:58:53;7.00;99.90
23681;DHT22;62915;50.832;4.462;2023-03-05T09:01:18;7.10;99.90
23681;DHT22;62915;50.832;4.462;2023-03-05T09:03:44;7.00;99.90
23681;DHT22;62915;50.832;4.462;2023-03-05T09:06:11;7.10;99.90
23681;DHT22;62915;50.832;4.462;2023-03-05T09:08:37;7.20;99.90
23681;DHT22;62915;50.832;4.462;2023-03-05T09:11:05;7.30;99.90
23681;DHT22;62915;50.832;4.462;2023-03-05T09:13:32;7.40;99.90
23681;DHT22;62915;50.832;4.462;2023-03-05T09:16:00;7.40;99.90
23681;DHT22;62915;50.832;4.462;2023-03-05T09:18:27;7.30;99.90
23681;DHT22;62915;50.832;4.462;2023-03-05T09:20:54;7.20;99.90
23681;DHT22;62915;50.832;4.462;2023-03-05T09:23:20;7.10;99.90
23681;DHT22;62915;50.832;4.462;2023-03-05T09:25:46;6.90;99.90
23681;DHT22;62915;50.832;4.462;2023-03-05T09:28:15;6.90;99.90
23681;DHT22;62915;50.832;4.462;2023-03-05T09:30:40;6.80;99.90
23681;DHT22;62915;50.832;4.462;2023-03-05T09:33:06;6.80;99.90
23681;DHT22;62915;50.832;4.462;2023-03-05T09:35:36;6.70;99.90
23681;DHT22;62915;50.832;4.462;2023-03-05T09:38:02;6.60;99.90
23681;DHT22;62915;50.832;4.462;2023-03-05T09:43:42;6.60;99.90
23681;DHT22;62915;50.832;4.462;2023-03-05T09:48:51;6.80;99.90
23681;DHT22;62915;50.832;4.462;2023-03-05T09:51:27;6.70;99.90
23681;DHT22;62915;50.832;4.462;2023-03-05T09:54:12;6.70;99.90
23681;DHT22;62915;50.832;4.462;2023-03-05T09:56:43;6.70;99.90
23681;DHT22;62915;50.832;4.462;2023-03-05T09:59:42;6.50;99.90
23681;DHT22;62915;50.832;4.462;2023-03-05T10:02:25;6.60;99.90
23681;DHT22;62915;50.832;4.462;2023-03-05T10:07:24;6.80;99.90
23681;DHT22;62915;50.832;4.462;2023-03-05T10:09:56;6.80;99.90
23681;DHT22;62915;50.832;4.462;2023-03-05T10:12:35;6.60;99.90
23681;DHT22;62915;50.832;4.462;2023-03-05T10:15:12;6.70;99.90
23681;DHT22;62915;50.832;4.462;2023-03-05T10:28:58;6.60;99.90
23681;DHT22;62915;50.832;4.462;2023-03-05T10:31:40;6.70;99.90
23681;DHT22;62915;50.832;4.462;2023-03-05T10:44:59;6.50;99.90
23681;DHT22;62915;50.832;4.462;2023-03-05T10:47:44;6.50;99.90
23681;DHT22;62915;50.832;4.462;2023-03-05T10:50:25;6.60;99.90
23681;DHT22;62915;50.832;4.462;2023-03-05T10:53:06;6.70;99.90
23681;DHT22;62915;50.832;4.462;2023-03-05T10:55:35;6.70;99.90
23681;DHT22;62915;50.832;4.462;2023-03-05T10:58:13;6.40;99.90
23681;DHT22;62915;50.832;4.462;2023-03-05T11:00:40;6.60;99.90
23681;DHT22;62915;50.832;4.462;2023-03-05T11:03:09;6.70;99.90
23681;DHT22;62915;50.832;4.462;2023-03-05T11:05:44;6.90;99.90
23681;DHT22;62915;50.832;4.462;2023-03-05T11:13:57;7.10;99.90
23681;DHT22;62915;50.832;4.462;2023-03-05T11:16:33;7.80;99.90
23681;DHT22;62915;50.832;4.462;2023-03-05T11:19:31;8.20;99.90
23681;DHT22;62915;50.832;4.462;2023-03-05T11:22:20;8.30;99.90
23681;DHT22;62915;50.832;4.462;2023-03-05T11:27:38;8.70;99.90
23681;DHT22;62915;50.832;4.462;2023-03-05T11:30:34;9.10;99.90
23681;DHT22;62915;50.832;4.462;2023-03-05T11:33:11;9.60;99.90
23681;DHT22;62915;50.832;4.462;2023-03-05T11:35:40;9.80;99.90
23681;DHT22;62915;50.832;4.462;2023-03-05T11:40:40;10.40;99.90
23681;DHT22;62915;50.832;4.462;2023-03-05T11:43:09;10.50;99.90
23681;DHT22;62915;50.832;4.462;2023-03-05T11:45:39;10.30;99.90
23681;DHT22;62915;50.832;4.462;2023-03-05T11:48:20;10.50;99.90
23681;DHT22;62915;50.832;4.462;2023-03-05T11:50:52;10.00;99.90
23681;DHT22;62915;50.832;4.462;2023-03-05T11:53:28;10.20;99.90
23681;DHT22;62915;50.832;4.462;2023-03-05T11:56:26;9.80;99.90
23681;DHT22;62915;50.832;4.462;2023-03-05T11:59:12;10.10;99.90
23681;DHT22;62915;50.832;4.462;2023-03-05T12:01:44;10.30;99.90
23681;DHT22;62915;50.832;4.462;2023-03-05T12:04:11;10.30;99.90
23681;DHT22;62915;50.832;4.462;2023-03-05T12:06:45;10.30;99.90
23681;DHT22;62915;50.832;4.462;2023-03-05T12:15:30;9.60;99.90
23681;DHT22;62915;50.832;4.462;2023-03-05T12:20:49;10.10;99.90
23681;DHT22;62915;50.832;4.462;2023-03-05T12:23:21;9.90;99.90
23681;DHT22;62915;50.832;4.462;2023-03-05T12:25:54;9.40;99.90
23681;DHT22;62915;50.832;4.462;2023-03-05T12:31:05;8.80;99.90
23681;DHT22;62915;50.832;4.462;2023-03-05T12:33:41;8.80;99.90
23681;DHT22;62915;50.832;4.462;2023-03-05T12:38:53;8.50;99.90
23681;DHT22;62915;50.832;4.462;2023-03-05T12:46:37;8.70;99.90
23681;DHT22;62915;50.832;4.462;2023-03-05T12:51:55;8.60;99.90
23681;DHT22;62915;50.832;4.462;2023-03-05T12:54:32;8.50;99.90
23681;DHT22;62915;50.832;4.462;2023-03-05T13:02:22;8.20;99.90
23681;DHT22;62915;50.832;4.462;2023-03-05T13:04:49;8.10;99.90
23681;DHT22;62915;50.832;4.462;2023-03-05T13:07:18;8.20;99.90
23681;DHT22;62915;50.832;4.462;2023-03-05T13:09:55;8.20;99.90
23681;DHT22;62915;50.832;4.462;2023-03-05T13:12:22;8.20;99.90
23681;DHT22;62915;50.832;4.462;2023-03-05T13:15:00;7.90;99.90
23681;DHT22;62915;50.832;4.462;2023-03-05T13:17:41;7.90;99.90
23681;DHT22;62915;50.832;4.462;2023-03-05T13:20:44;7.70;99.90
23681;DHT22;62915;50.832;4.462;2023-03-05T13:25:35;7.70;99.90
23681;DHT22;62915;50.832;4.462;2023-03-05T13:28:12;7.60;99.90
23681;DHT22;62915;50.832;4.462;2023-03-05T13:30:42;7.60;99.90
23681;DHT22;62915;50.832;4.462;2023-03-05T13:33:16;7.70;99.90
23681;DHT22;62915;50.832;4.462;2023-03-05T13:35:45;7.90;99.90
23681;DHT22;62915;50.832;4.462;2023-03-05T13:38:44;7.90;99.90
23681;DHT22;62915;50.832;4.462;2023-03-05T13:43:44;7.70;99.90
23681;DHT22;62915;50.832;4.462;2023-03-05T13:46:42;7.70;99.90
23681;DHT22;62915;50.832;4.462;2023-03-05T13:49:24;7.50;99.90
23681;DHT22;62915;50.832;4.462;2023-03-05T13:51:56;7.40;99.90
23681;DHT22;62915;50.832;4.462;2023-03-05T13:54:24;7.50;99.90
23681;DHT22;62915;50.832;4.462;2023-03-05T13:59:21;7.70;99.90
23681;DHT22;62915;50.832;4.462;2023-03-05T14:01:47;7.60;99.90
23681;DHT22;62915;50.832;4.462;2023-03-05T14:06:57;7.40;99.90
23681;DHT22;62915;50.832;4.462;2023-03-05T14:12:24;7.10;99.90
23681;DHT22;62915;50.832;4.462;2023-03-05T14:14:55;7.10;99.90
23681;DHT22;62915;50.832;4.462;2023-03-05T14:20:24;7.00;99.90
23681;DHT22;62915;50.832;4.462;2023-03-05T14:22:54;7.00;99.90
23681;DHT22;62915;50.832;4.462;2023-03-05T14:25:34;7.00;99.90
23681;DHT22;62915;50.832;4.462;2023-03-05T14:28:24;6.90;99.90
23681;DHT22;62915;50.832;4.462;2023-03-05T14:30:53;7.00;99.90
23681;DHT22;62915;50.832;4.462;2023-03-05T14:33:23;7.00;99.90
23681;DHT22;62915;50.832;4.462;2023-03-05T14:35:51;7.00;99.90
23681;DHT22;62915;50.832;4.462;2023-03-05T14:38:28;7.10;99.90
23681;DHT22;62915;50.832;4.462;2023-03-05T14:40:56;7.20;99.90
23681;DHT22;62915;50.832;4.462;2023-03-05T14:43:22;7.40;99.90
23681;DHT22;62915;50.832;4.462;2023-03-05T14:45:48;7.50;99.90
23681;DHT22;62915;50.832;4.462;2023-03-05T14:48:16;7.50;99.90
23681;DHT22;62915;50.832;4.462;2023-03-05T14:50:48;7.40;99.90
23681;DHT22;62915;50.832;4.462;2023-03-05T14:53:25;7.20;99.90
23681;DHT22;62915;50.832;4.462;2023-03-05T14:55:53;7.20;99.90
23681;DHT22;62915;50.832;4.462;2023-03-05T14:58:24;7.40;99.90
23681;DHT22;62915;50.832;4.462;2023-03-05T15:00:53;7.40;99.90
23681;DHT22;62915;50.832;4.462;2023-03-05T15:03:21;7.30;99.90
23681;DHT22;62915;50.832;4.462;2023-03-05T15:05:50;7.20;99.90
23681;DHT22;62915;50.832;4.462;2023-03-05T15:08:21;7.20;99.90
23681;DHT22;62915;50.832;4.462;2023-03-05T15:10:48;7.10;99.90
23681;DHT22;62915;50.832;4.462;2023-03-05T15:13:14;7.10;99.90
23681;DHT22;62915;50.832;4.462;2023-03-05T15:15:41;7.10;99.90
23681;DHT22;62915;50.832;4.462;2023-03-05T15:18:15;7.20;99.90
23681;DHT22;62915;50.832;4.462;2023-03-05T15:20:41;7.10;99.90
23681;DHT22;62915;50.832;4.462;2023-03-05T15:23:08;7.30;99.90
23681;DHT22;62915;50.832;4.462;2023-03-05T15:25:33;7.30;99.90
23681;DHT22;62915;50.832;4.462;2023-03-05T15:27:59;7.30;99.90
23681;DHT22;62915;50.832;4.462;2023-03-05T15:32:52;7.30;99.90
23681;DHT22;62915;50.832;4.462;2023-03-05T15:35:18;7.30;99.90
23681;DHT22;62915;50.832;4.462;2023-03-05T15:37:44;7.20;99.90
23681;DHT22;62915;50.832;4.462;2023-03-05T15:40:10;7.40;99.90
23681;DHT22;62915;50.832;4.462;2023-03-05T15:42:36;7.20;99.90
23681;DHT22;62915;50.832;4.462;2023-03-05T15:45:02;7.10;99.90
23681;DHT22;62915;50.832;4.462;2023-03-05T15:47:28;7.10;99.90
23681;DHT22;62915;50.832;4.462;2023-03-05T15:49:53;7.10;99.90
23681;DHT22;62915;50.832;4.462;2023-03-05T15:52:19;7.10;99.90
23681;DHT22;62915;50.832;4.462;2023-03-05T15:54:45;7.20;99.90
23681;DHT22;62915;50.832;4.462;2023-03-05T15:57:11;7.10;99.90
23681;DHT22;62915;50.832;4.462;2023-03-05T15:59:37;7.20;99.90
23681;DHT22;62915;50.832;4.462;2023-03-05T16:02:03;7.30;99.90
23681;DHT22;62915;50.832;4.462;2023-03-05T16:04:30;7.00;99.90
23681;DHT22;62915;50.832;4.462;2023-03-05T16:06:58;7.10;99.90
23681;DHT22;62915;50.832;4.462;2023-03-05T16:09:30;7.10;99.90
23681;DHT22;62915;50.832;4.462;2023-03-05T16:11:57;7.10;99.90
23681;DHT22;62915;50.832;4.462;2023-03-05T16:14:25;7.10;99.90
23681;DHT22;62915;50.832;4.462;2023-03-05T16:16:54;7.10;99.90
23681;DHT22;62915;50.832;4.462;2023-03-05T16:19:21;7.10;99.90
23681;DHT22;62915;50.832;4.462;2023-03-05T16:21:48;7.10;99.90
23681;DHT22;62915;50.832;4.462;2023-03-05T16:24:14;7.20;99.90
23681;DHT22;62915;50.832;4.462;2023-03-05T16:26:41;7.40;99.90
23681;DHT22;62915;50.832;4.462;2023-03-05T16:29:07;7.10;99.90
23681;DHT22;62915;50.832;4.462;2023-03-05T16:31:36;7.20;99.90
23681;DHT22;62915;50.832;4.462;2023-03-05T16:34:07;7.20;99.90
23681;DHT22;62915;50.832;4.462;2023-03-05T16:36:33;7.10;99.90
23681;DHT22;62915;50.832;4.462;2023-03-05T16:39:02;7.30;99.90
23681;DHT22;62915;50.832;4.462;2023-03-05T16:41:28;7.30;99.90
23681;DHT22;62915;50.832;4.462;2023-03-05T16:43:55;7.30;99.90
23681;DHT22;62915;50.832;4.462;2023-03-05T16:46:23;7.20;99.90
23681;DHT22;62915;50.832;4.462;2023-03-05T16:48:51;7.10;99.90
23681;DHT22;62915;50.832;4.462;2023-03-05T16:51:17;7.10;99.90
23681;DHT22;62915;50.832;4.462;2023-03-05T16:53:43;7.10;99.90
23681;DHT22;62915;50.832;4.462;2023-03-05T16:56:09;7.00;99.90
23681;DHT22;62915;50.832;4.462;2023-03-05T16:58:38;6.90;99.90
23681;DHT22;62915;50.832;4.462;2023-03-05T17:01:16;7.00;99.90
23681;DHT22;62915;50.832;4.462;2023-03-05T17:03:45;6.70;99.90
23681;DHT22;62915;50.832;4.462;2023-03-05T17:06:17;6.50;99.90
23681;DHT22;62915;50.832;4.462;2023-03-05T17:08:45;6.20;99.90
23681;DHT22;62915;50.832;4.462;2023-03-05T17:11:14;6.10;99.90
23681;DHT22;62915;50.832;4.462;2023-03-05T17:13:40;6.10;99.90
23681;DHT22;62915;50.832;4.462;2023-03-05T17:16:07;6.30;99.90
23681;DHT22;62915;50.832;4.462;2023-03-05T17:18:33;6.30;99.90
23681;DHT22;62915;50.832;4.462;2023-03-05T17:21:00;6.50;99.90
23681;DHT22;62915;50.832;4.462;2023-03-05T17:23:26;6.60;99.90
23681;DHT22;62915;50.832;4.462;2023-03-05T17:25:52;6.60;99.90